Time;durP1;ratioP1;P1;durP2;ratioP2;P2;SDS_P1;SDS_P2;PMS_P1;PMS_P2;Temp;Humidity;BMP_temperature;BMP_pressure;BME280_temperature;BME280_humidity;BME280_pressure;Samples;Min_cycle;Max_cycle;Signal;HPM_P1;HPM_P2
2022/10/16 00:01:30;;;;;;;4.95;0.85;;;18.20;61.00;;;;;;5011922;28;20485;-51
2022/10/16 00:03:58;;;;;;;0.75;0.68;;;18.20;61.00;;;;;;5008832;28;20049;-50
2022/10/16 00:06:26;;;;;;;0.85;0.77;;;18.10;61.00;;;;;;5007922;28;20057;-52
2022/10/16 00:08:54;;;;;;;2.38;0.70;;;18.10;61.00;;;;;;5007910;28;20060;-48
2022/10/16 00:11:23;;;;;;;2.00;0.82;;;18.10;61.00;;;;;;5009261;28;20469;-50
2022/10/16 00:13:55;;;;;;;0.75;0.70;;;18.10;61.00;;;;;;5010838;28;20742;-52
2022/10/16 00:16:22;;;;;;;1.67;0.73;;;18.10;61.00;;;;;;5007304;28;20054;-50
2022/10/16 00:18:49;;;;;;;2.08;0.65;;;18.10;61.00;;;;;;5006211;28;21015;-53
2022/10/16 00:21:18;;;;;;;7.82;0.88;;;18.10;61.00;;;;;;5001032;28;20057;-52
2022/10/16 00:23:46;;;;;;;2.80;1.00;;;18.10;60.90;;;;;;5006291;28;21346;-49
2022/10/16 00:26:17;;;;;;;1.38;1.00;;;18.10;60.90;;;;;;5008505;28;20045;-50
2022/10/16 00:28:47;;;;;;;1.20;0.90;;;18.10;61.30;;;;;;5011401;28;20049;-52
2022/10/16 00:31:16;;;;;;;1.20;0.90;;;18.10;60.90;;;;;;5003759;28;20068;-51
2022/10/16 00:33:43;;;;;;;1.25;0.82;;;18.10;60.90;;;;;;4996666;28;20054;-53
2022/10/16 00:36:13;;;;;;;0.98;0.80;;;18.10;60.90;;;;;;4999852;28;20057;-52
2022/10/16 00:38:41;;;;;;;1.83;1.00;;;18.00;60.80;;;;;;5013607;28;20060;-51
2022/10/16 00:41:11;;;;;;;1.77;0.93;;;18.00;60.80;;;;;;5009720;28;20053;-49
2022/10/16 00:43:41;;;;;;;1.88;0.70;;;18.00;60.80;;;;;;5008449;28;20045;-50
2022/10/16 00:46:17;;;;;;;2.03;0.73;;;18.00;60.70;;;;;;5005199;28;20057;-53
2022/10/16 00:48:49;;;;;;;1.05;0.95;;;18.00;60.70;;;;;;5007796;28;20065;-53
2022/10/16 00:51:20;;;;;;;1.42;0.90;;;18.00;60.60;;;;;;5004879;28;20060;-49
2022/10/16 00:53:47;;;;;;;1.85;0.90;;;18.00;60.70;;;;;;5006900;28;20378;-53
2022/10/16 00:56:14;;;;;;;2.78;1.00;;;17.90;60.60;;;;;;5009216;28;20061;-53
2022/10/16 00:58:42;;;;;;;2.20;0.65;;;17.90;60.60;;;;;;4995367;28;20053;-51
2022/10/16 01:01:09;;;;;;;0.60;0.60;;;17.90;60.70;;;;;;5003734;28;20049;-51
2022/10/16 01:03:38;;;;;;;2.80;0.70;;;17.90;60.70;;;;;;5005817;28;20057;-47
2022/10/16 01:06:19;;;;;;;1.27;0.70;;;17.90;60.80;;;;;;5002904;28;20065;-53
2022/10/16 01:08:56;;;;;;;0.80;0.45;;;17.90;60.80;;;;;;5011643;28;20060;-53
2022/10/16 01:11:29;;;;;;;2.17;0.90;;;17.80;60.80;;;;;;5005320;28;20057;-52
2022/10/16 01:14:01;;;;;;;2.15;0.60;;;17.90;60.80;;;;;;5005120;28;20525;-50
2022/10/16 01:16:35;;;;;;;3.55;0.50;;;17.90;60.90;;;;;;5009035;28;20056;-52
2022/10/16 01:19:07;;;;;;;;;;;17.80;60.90;;;;;;4988600;28;20064;-53
2022/10/16 01:21:39;;;;;;;1.98;0.57;;;17.80;61.00;;;;;;4987435;28;19922;-52
2022/10/16 01:24:12;;;;;;;0.98;0.50;;;17.80;60.70;;;;;;4989610;28;20065;-52
2022/10/16 01:26:55;;;;;;;0.93;0.70;;;17.80;60.80;;;;;;5002162;28;20136;-52
2022/10/16 01:29:27;;;;;;;0.68;0.45;;;17.80;61.00;;;;;;4992353;28;20050;-52
2022/10/16 01:32:00;;;;;;;0.68;0.60;;;17.70;61.00;;;;;;4999852;28;20508;-52
2022/10/16 01:34:33;;;;;;;1.48;0.73;;;17.70;61.10;;;;;;5000368;28;20053;-54
2022/10/16 01:37:06;;;;;;;0.57;0.40;;;17.70;61.20;;;;;;5006706;28;20053;-48
2022/10/16 01:39:36;;;;;;;1.23;0.63;;;17.80;61.20;;;;;;4997051;28;20061;-51
2022/10/16 01:42:09;;;;;;;0.63;0.57;;;17.70;61.20;;;;;;4997231;28;20053;-52
2022/10/16 01:44:39;;;;;;;1.45;0.60;;;17.70;61.20;;;;;;5006103;28;20080;-51
2022/10/16 01:47:08;;;;;;;0.80;0.50;;;17.70;61.20;;;;;;4996002;28;20539;-53
2022/10/16 01:49:39;;;;;;;3.35;0.90;;;17.70;61.10;;;;;;5004524;28;20064;-51
2022/10/16 01:52:12;;;;;;;1.23;0.70;;;17.70;61.20;;;;;;5001977;28;20769;-50
2022/10/16 01:54:43;;;;;;;2.08;0.70;;;17.70;61.20;;;;;;5004975;28;20053;-52
2022/10/16 01:57:13;;;;;;;1.25;0.50;;;17.70;61.20;;;;;;5010788;28;20054;-53
2022/10/16 01:59:46;;;;;;;0.88;0.60;;;17.60;61.20;;;;;;5003272;28;20065;-52
2022/10/16 02:02:15;;;;;;;1.90;0.75;;;17.60;61.10;;;;;;5002248;28;20437;-52
2022/10/16 02:04:46;;;;;;;1.77;0.70;;;17.60;61.20;;;;;;5006462;28;20417;-51
2022/10/16 02:07:14;;;;;;;4.30;0.70;;;17.60;61.30;;;;;;4998105;28;20061;-51
2022/10/16 02:09:42;;;;;;;0.88;0.63;;;17.60;61.30;;;;;;5002440;28;20490;-51
2022/10/16 02:12:13;;;;;;;1.05;0.80;;;17.50;61.30;;;;;;4991849;28;20050;-52
2022/10/16 02:14:42;;;;;;;0.55;0.43;;;17.60;61.50;;;;;;4984787;28;20057;-50
2022/10/16 02:17:15;;;;;;;3.72;0.75;;;17.60;61.50;;;;;;4996394;28;20141;-51
2022/10/16 02:19:47;;;;;;;0.50;0.50;;;17.50;61.60;;;;;;5009848;28;21698;-52
2022/10/16 02:22:20;;;;;;;1.15;0.50;;;17.60;61.80;;;;;;5009464;28;20513;-53
2022/10/16 02:24:54;;;;;;;3.53;0.68;;;17.50;61.90;;;;;;5003163;28;20049;-50
2022/10/16 02:27:27;;;;;;;0.82;0.65;;;17.50;61.90;;;;;;5003039;28;20045;-45
2022/10/16 02:30:00;;;;;;;2.17;0.67;;;17.50;62.00;;;;;;5000920;28;20053;-47
2022/10/16 02:32:32;;;;;;;1.40;0.70;;;17.60;62.20;;;;;;4997630;28;20116;-49
2022/10/16 02:35:01;;;;;;;1.30;0.70;;;17.50;62.10;;;;;;5003375;28;20508;-53
2022/10/16 02:37:29;;;;;;;1.17;0.52;;;17.50;62.10;;;;;;5009754;28;20060;-45
2022/10/16 02:39:58;;;;;;;2.25;0.60;;;17.50;62.20;;;;;;5030692;28;20316;-48
2022/10/16 02:42:30;;;;;;;1.08;0.60;;;17.50;62.20;;;;;;5039567;28;20045;-46
2022/10/16 02:44:59;;;;;;;2.35;0.60;;;17.60;62.30;;;;;;5036600;28;20512;-49
2022/10/16 02:47:26;;;;;;;1.13;0.45;;;17.50;62.30;;;;;;5026215;28;20066;-48
2022/10/16 02:49:53;;;;;;;1.45;0.70;;;17.50;62.30;;;;;;5031560;28;20072;-49
2022/10/16 02:52:21;;;;;;;0.70;0.65;;;17.50;62.30;;;;;;5038508;28;20068;-48
2022/10/16 02:54:48;;;;;;;1.58;0.57;;;17.50;62.30;;;;;;4995080;28;20050;-51
2022/10/16 02:57:15;;;;;;;1.17;0.60;;;17.60;62.40;;;;;;5005276;28;20057;-50
2022/10/16 02:59:43;;;;;;;1.13;0.60;;;17.60;62.40;;;;;;5012365;28;20492;-48
2022/10/16 03:02:11;;;;;;;3.20;1.02;;;17.50;62.40;;;;;;5015681;28;20057;-48
2022/10/16 03:04:39;;;;;;;1.08;0.60;;;17.60;62.40;;;;;;5031548;28;20076;-48
2022/10/16 03:07:07;;;;;;;0.70;0.52;;;17.50;62.30;;;;;;5002149;28;20057;-49
2022/10/16 03:09:34;;;;;;;1.98;0.40;;;17.60;62.40;;;;;;5007170;28;20058;-53
2022/10/16 03:12:02;;;;;;;1.65;0.60;;;17.50;62.40;;;;;;5008251;28;20053;-45
2022/10/16 03:14:29;;;;;;;0.80;0.50;;;17.60;62.40;;;;;;5006570;28;20093;-52
2022/10/16 03:16:56;;;;;;;0.88;0.63;;;17.60;62.40;;;;;;5009331;28;20433;-50
2022/10/16 03:19:25;;;;;;;2.92;0.70;;;17.60;62.40;;;;;;5015115;28;20060;-50
2022/10/16 03:21:52;;;;;;;2.63;0.90;;;17.50;62.30;;;;;;5012206;28;21317;-46
2022/10/16 03:24:19;;;;;;;2.05;0.55;;;17.50;62.30;;;;;;5031322;28;20489;-46
2022/10/16 03:26:46;;;;;;;0.85;0.50;;;17.60;62.40;;;;;;5025498;28;20057;-50
2022/10/16 03:29:14;;;;;;;1.88;1.10;;;17.50;62.30;;;;;;5016034;28;20057;-46
2022/10/16 03:31:41;;;;;;;1.33;1.00;;;17.50;62.40;;;;;;5011483;28;22687;-49
2022/10/16 03:34:08;;;;;;;1.05;0.93;;;17.60;62.40;;;;;;5003521;28;20049;-49
2022/10/16 03:36:37;;;;;;;1.30;0.60;;;17.50;62.40;;;;;;5030743;28;20512;-49
2022/10/16 03:39:04;;;;;;;0.77;0.60;;;17.60;62.50;;;;;;5000930;28;20057;-48
2022/10/16 03:41:31;;;;;;;0.55;0.40;;;17.60;62.50;;;;;;5006593;28;20060;-45
2022/10/16 03:43:59;;;;;;;1.08;0.50;;;17.60;62.60;;;;;;5003883;28;20150;-49
2022/10/16 03:46:26;;;;;;;1.75;0.50;;;17.60;62.50;;;;;;5005256;28;20060;-51
2022/10/16 03:48:53;;;;;;;0.75;0.55;;;17.60;62.50;;;;;;5003373;28;20708;-47
2022/10/16 03:51:20;;;;;;;1.65;0.50;;;17.60;62.40;;;;;;5002156;28;20049;-50
2022/10/16 03:53:49;;;;;;;3.45;0.57;;;17.60;62.40;;;;;;5003746;28;20611;-49
2022/10/16 03:56:16;;;;;;;2.28;0.65;;;17.60;62.40;;;;;;5009329;28;21608;-50
2022/10/16 03:58:43;;;;;;;2.33;0.82;;;17.60;62.40;;;;;;5004415;28;20061;-48
2022/10/16 04:01:11;;;;;;;1.98;0.52;;;17.60;62.40;;;;;;5005368;28;21358;-45
2022/10/16 04:03:38;;;;;;;1.85;0.50;;;17.60;62.40;;;;;;5011415;28;20493;-50
2022/10/16 04:06:05;;;;;;;1.10;0.60;;;17.60;62.40;;;;;;5010024;28;20069;-53
2022/10/16 04:08:34;;;;;;;3.13;0.90;;;17.60;62.20;;;;;;5008115;28;20054;-51
2022/10/16 04:11:03;;;;;;;0.85;0.60;;;17.60;62.20;;;;;;5009067;28;20433;-45
2022/10/16 04:13:31;;;;;;;1.92;0.60;;;17.60;62.10;;;;;;5008806;28;20050;-47
2022/10/16 04:15:58;;;;;;;2.67;0.60;;;17.60;62.00;;;;;;5010001;28;20421;-46
2022/10/16 04:18:26;;;;;;;0.70;0.60;;;17.60;61.90;;;;;;5005741;28;20056;-51
2022/10/16 04:20:54;;;;;;;3.22;0.63;;;17.60;62.10;;;;;;5022486;28;20402;-52
2022/10/16 04:23:22;;;;;;;2.90;0.60;;;17.60;62.00;;;;;;5014976;28;20061;-49
2022/10/16 04:25:49;;;;;;;3.40;0.60;;;17.60;62.00;;;;;;5006589;28;20061;-49
2022/10/16 04:28:18;;;;;;;0.60;0.43;;;17.60;61.90;;;;;;5009270;28;20423;-45
2022/10/16 04:30:45;;;;;;;0.73;0.70;;;17.60;61.90;;;;;;5006811;28;20056;-52
2022/10/16 04:33:13;;;;;;;1.60;0.57;;;17.60;61.90;;;;;;5008643;28;20515;-48
2022/10/16 04:35:41;;;;;;;2.08;0.77;;;17.60;61.90;;;;;;5008403;28;20072;-46
2022/10/16 04:38:08;;;;;;;1.30;0.50;;;17.60;61.90;;;;;;5009509;28;20501;-50
2022/10/16 04:40:36;;;;;;;2.88;0.63;;;17.60;61.90;;;;;;5012449;28;20060;-51
2022/10/16 04:43:04;;;;;;;0.65;0.47;;;17.60;62.00;;;;;;5004237;28;20512;-48
2022/10/16 04:45:32;;;;;;;1.58;0.60;;;17.70;62.00;;;;;;5006149;28;20410;-53
2022/10/16 04:48:00;;;;;;;1.00;0.60;;;17.60;61.90;;;;;;5003631;28;20520;-48
2022/10/16 04:50:27;;;;;;;0.50;0.50;;;17.70;61.90;;;;;;5004932;28;20064;-47
2022/10/16 04:52:55;;;;;;;2.55;0.98;;;17.70;62.00;;;;;;5012464;28;20060;-48
2022/10/16 04:55:22;;;;;;;3.03;0.60;;;17.70;62.00;;;;;;5004027;28;20060;-49
2022/10/16 04:57:49;;;;;;;2.95;0.80;;;17.70;62.40;;;;;;5006237;28;20057;-46
2022/10/16 05:00:16;;;;;;;2.75;0.93;;;17.70;62.00;;;;;;5005708;28;22414;-48
2022/10/16 05:02:45;;;;;;;3.30;1.92;;;17.70;62.00;;;;;;5005621;28;20053;-49
2022/10/16 05:05:12;;;;;;;2.03;1.02;;;17.80;62.10;;;;;;5007962;28;20056;-51
2022/10/16 05:07:39;;;;;;;1.27;1.05;;;17.70;62.00;;;;;;5002960;28;20480;-52
2022/10/16 05:10:07;;;;;;;1.38;0.70;;;17.70;62.10;;;;;;5002756;28;20580;-45
2022/10/16 05:12:34;;;;;;;0.63;0.50;;;17.70;62.10;;;;;;5009136;28;20071;-47
2022/10/16 05:15:01;;;;;;;1.25;0.73;;;17.70;62.00;;;;;;5014119;28;20053;-47
2022/10/16 05:17:29;;;;;;;1.30;0.43;;;17.80;62.10;;;;;;5003586;28;20068;-46
2022/10/16 05:19:57;;;;;;;0.30;0.30;;;17.80;62.10;;;;;;5005828;28;20057;-48
2022/10/16 05:22:24;;;;;;;1.33;0.55;;;17.80;62.20;;;;;;5005344;28;20490;-49
2022/10/16 05:24:52;;;;;;;0.85;0.70;;;17.80;62.20;;;;;;5004750;28;20076;-48
2022/10/16 05:27:19;;;;;;;1.48;0.63;;;17.80;62.20;;;;;;4999648;28;20057;-48
2022/10/16 05:29:47;;;;;;;3.00;0.68;;;17.80;62.20;;;;;;5000689;28;20065;-46
2022/10/16 05:32:16;;;;;;;4.70;1.88;;;17.80;62.30;;;;;;5000331;28;20060;-52
2022/10/16 05:34:44;;;;;;;22.95;10.02;;;17.80;62.30;;;;;;5002566;28;20052;-46
2022/10/16 05:37:13;;;;;;;5.97;3.08;;;17.80;62.20;;;;;;5000728;28;20052;-48
2022/10/16 05:39:40;;;;;;;6.30;1.50;;;17.80;62.20;;;;;;5002367;28;20497;-47
2022/10/16 05:42:08;;;;;;;1.40;0.70;;;17.90;62.20;;;;;;5003744;28;20053;-49
2022/10/16 05:44:35;;;;;;;1.70;0.60;;;17.90;62.30;;;;;;5004459;28;20050;-49
2022/10/16 05:47:02;;;;;;;1.30;0.80;;;17.90;62.20;;;;;;5001382;28;20490;-46
2022/10/16 05:49:29;;;;;;;0.95;0.68;;;17.90;62.20;;;;;;5004550;28;20058;-46
2022/10/16 05:51:57;;;;;;;1.98;0.85;;;17.90;62.30;;;;;;5001975;28;20420;-45
2022/10/16 05:54:25;;;;;;;1.77;1.20;;;17.90;62.30;;;;;;5005310;28;20057;-51
2022/10/16 05:56:52;;;;;;;1.45;0.80;;;17.90;62.40;;;;;;5007067;28;20422;-51
2022/10/16 05:59:19;;;;;;;4.13;1.00;;;17.90;62.30;;;;;;5001701;28;20054;-51
2022/10/16 06:01:47;;;;;;;0.88;0.80;;;17.90;62.30;;;;;;5006842;28;20057;-47
2022/10/16 06:04:14;;;;;;;1.70;0.95;;;17.90;62.30;;;;;;4997879;28;20045;-51
2022/10/16 06:06:41;;;;;;;0.98;0.88;;;17.90;62.40;;;;;;4999288;28;20208;-53
2022/10/16 06:09:10;;;;;;;2.35;1.02;;;17.90;62.40;;;;;;4987429;28;20282;-48
2022/10/16 06:11:38;;;;;;;1.77;1.02;;;17.90;62.50;;;;;;5008450;28;20049;-50
2022/10/16 06:14:07;;;;;;;1.40;1.00;;;17.90;62.60;;;;;;5007542;28;20060;-49
2022/10/16 06:16:35;;;;;;;1.13;0.82;;;17.90;62.60;;;;;;5004411;28;20499;-45
2022/10/16 06:19:05;;;;;;;1.75;0.90;;;17.90;62.70;;;;;;4993607;28;20065;-49
2022/10/16 06:21:33;;;;;;;0.98;0.80;;;17.90;62.70;;;;;;5009524;28;20057;-53
2022/10/16 06:24:00;;;;;;;1.02;0.70;;;17.90;62.70;;;;;;5007222;28;20056;-52
2022/10/16 06:26:29;;;;;;;0.98;0.70;;;18.00;62.90;;;;;;5007325;28;21447;-52
2022/10/16 06:28:59;;;;;;;2.90;0.82;;;17.90;62.80;;;;;;5010933;28;20128;-46
2022/10/16 06:31:30;;;;;;;4.68;1.00;;;18.00;63.00;;;;;;5002828;28;20060;-48
2022/10/16 06:33:58;;;;;;;1.58;0.98;;;18.00;63.00;;;;;;5009570;28;20053;-49
2022/10/16 06:36:26;;;;;;;3.70;0.60;;;17.90;63.00;;;;;;5004155;28;19930;-49
2022/10/16 06:38:54;;;;;;;1.75;0.70;;;18.00;63.00;;;;;;4989011;28;20513;-44
2022/10/16 06:41:23;;;;;;;1.05;0.70;;;18.00;63.00;;;;;;5006841;28;20065;-51
2022/10/16 06:43:50;;;;;;;1.30;0.80;;;18.00;63.10;;;;;;5000312;28;20061;-50
2022/10/16 06:46:21;;;;;;;1.70;0.70;;;17.90;63.00;;;;;;5007289;28;20512;-46
2022/10/16 06:48:49;;;;;;;0.73;0.60;;;18.00;63.20;;;;;;5008495;28;20049;-46
2022/10/16 06:51:18;;;;;;;1.48;0.63;;;18.00;63.20;;;;;;5007554;28;20202;-43
2022/10/16 06:53:49;;;;;;;1.17;0.50;;;18.00;63.20;;;;;;5007188;28;20049;-48
2022/10/16 06:56:18;;;;;;;1.38;0.60;;;18.00;63.20;;;;;;5009752;28;20401;-47
2022/10/16 06:58:46;;;;;;;1.70;0.68;;;18.00;63.20;;;;;;5010062;28;20061;-46
2022/10/16 07:01:15;;;;;;;3.72;0.70;;;18.00;63.30;;;;;;5008501;28;20060;-50
2022/10/16 07:03:45;;;;;;;1.55;0.70;;;18.00;63.30;;;;;;4997591;28;20445;-51
2022/10/16 07:06:15;;;;;;;4.05;0.90;;;18.00;63.40;;;;;;5000095;28;20058;-52
2022/10/16 07:08:44;;;;;;;2.85;0.90;;;18.00;63.30;;;;;;5005780;28;20466;-50
2022/10/16 07:11:13;;;;;;;3.58;0.70;;;18.00;63.30;;;;;;5006482;28;20062;-45
2022/10/16 07:13:42;;;;;;;1.55;0.75;;;18.00;63.30;;;;;;4992172;28;20061;-49
2022/10/16 07:16:11;;;;;;;2.05;0.63;;;18.00;63.30;;;;;;5001835;28;20049;-46
2022/10/16 07:18:40;;;;;;;2.67;0.60;;;18.00;63.40;;;;;;5005926;28;20576;-46
2022/10/16 07:21:10;;;;;;;2.15;1.10;;;18.00;63.40;;;;;;5004931;28;20534;-44
2022/10/16 07:23:38;;;;;;;10.82;0.95;;;18.10;63.50;;;;;;5005970;28;20060;-50
2022/10/16 07:26:06;;;;;;;1.85;0.73;;;18.10;64.20;;;;;;5008317;28;20489;-50
2022/10/16 07:28:34;;;;;;;0.90;0.60;;;18.10;64.30;;;;;;4999496;28;20065;-46
2022/10/16 07:31:02;;;;;;;1.15;0.70;;;18.10;63.50;;;;;;5003750;28;20061;-52
2022/10/16 07:33:30;;;;;;;1.05;0.60;;;18.10;63.50;;;;;;5000642;28;20057;-46
2022/10/16 07:35:57;;;;;;;2.97;0.85;;;18.10;63.60;;;;;;4995502;28;20056;-53
2022/10/16 07:38:26;;;;;;;1.15;0.70;;;18.10;63.70;;;;;;4995682;28;20069;-47
2022/10/16 07:40:58;;;;;;;1.30;0.60;;;18.20;63.80;;;;;;5005755;28;20068;-50
2022/10/16 07:43:26;;;;;;;1.13;0.50;;;18.20;63.90;;;;;;5006170;28;20506;-51
2022/10/16 07:45:54;;;;;;;2.00;0.80;;;18.20;63.90;;;;;;5002718;28;20076;-46
2022/10/16 07:48:23;;;;;;;2.08;0.70;;;18.20;63.90;;;;;;5007794;28;20424;-46
2022/10/16 07:50:50;;;;;;;0.70;0.50;;;18.20;63.90;;;;;;4995240;28;20053;-49
2022/10/16 07:53:18;;;;;;;3.47;0.57;;;18.20;63.80;;;;;;5009141;28;21737;-48
2022/10/16 07:55:46;;;;;;;3.05;0.85;;;18.30;63.80;;;;;;5009028;28;20060;-47
2022/10/16 07:58:13;;;;;;;2.85;0.60;;;18.30;63.80;;;;;;5008607;28;21774;-47
2022/10/16 08:00:40;;;;;;;15.00;7.85;;;18.30;63.80;;;;;;5005598;28;20401;-46
2022/10/16 08:03:09;;;;;;;32.63;13.45;;;18.30;63.90;;;;;;4995964;28;20049;-54
2022/10/16 08:05:36;;;;;;;11.52;5.80;;;18.30;64.00;;;;;;5005016;28;20053;-48
2022/10/16 08:08:04;;;;;;;6.43;2.35;;;18.40;64.00;;;;;;5014194;28;20058;-48
2022/10/16 08:10:31;;;;;;;1.88;1.30;;;18.40;64.70;;;;;;5009718;28;20049;-53
2022/10/16 08:13:00;;;;;;;1.73;1.08;;;18.40;64.10;;;;;;5014115;28;20056;-47
2022/10/16 08:15:27;;;;;;;1.00;0.70;;;18.40;64.00;;;;;;5022429;28;20053;-44
2022/10/16 08:17:59;;;;;;;1.67;0.70;;;18.50;64.00;;;;;;5013060;28;20065;-53
2022/10/16 08:20:27;;;;;;;3.00;0.90;;;18.40;64.00;;;;;;5008179;28;21421;-50
2022/10/16 08:22:54;;;;;;;0.82;0.70;;;18.50;64.00;;;;;;5000375;28;20573;-54
2022/10/16 08:25:22;;;;;;;3.45;1.10;;;18.50;64.10;;;;;;5001076;28;20053;-50
2022/10/16 08:27:50;;;;;;;4.20;1.13;;;18.50;64.10;;;;;;5003464;28;20059;-50
2022/10/16 08:30:20;;;;;;;2.53;1.10;;;18.50;64.10;;;;;;5000498;28;20057;-51
2022/10/16 08:32:47;;;;;;;0.98;0.60;;;18.60;64.10;;;;;;5003367;28;20061;-46
2022/10/16 08:35:15;;;;;;;0.50;0.50;;;18.60;64.00;;;;;;5014297;28;21938;-45
2022/10/16 08:37:43;;;;;;;1.38;0.80;;;18.60;63.90;;;;;;5029616;28;20057;-46
2022/10/16 08:40:19;;;;;;;5.60;2.08;;;18.60;63.60;;;;;;5023873;28;20619;-48
2022/10/16 08:43:05;;;;;;;3.53;1.48;;;18.70;63.40;;;;;;5010490;28;20618;-45
2022/10/16 08:45:44;;;;;;;1.02;0.80;;;18.60;63.00;;;;;;5018443;28;20079;-48
2022/10/16 08:48:21;;;;;;;5.20;0.82;;;18.70;62.70;;;;;;5014149;28;20076;-48
2022/10/16 08:50:50;;;;;;;3.40;0.57;;;18.70;62.30;;;;;;5018214;28;20489;-52
2022/10/16 08:53:23;;;;;;;1.40;0.50;;;18.70;62.20;;;;;;5004075;28;20056;-55
2022/10/16 08:55:52;;;;;;;1.63;0.57;;;18.70;62.10;;;;;;5002437;28;20125;-49
2022/10/16 08:58:21;;;;;;;1.00;0.63;;;18.70;62.10;;;;;;5008044;28;20065;-47
2022/10/16 09:00:54;;;;;;;3.70;0.50;;;18.80;62.00;;;;;;5005305;28;20057;-49
2022/10/16 09:03:40;;;;;;;1.93;0.57;;;18.80;61.80;;;;;;5015852;28;20412;-48
2022/10/16 09:06:33;;;;;;;4.85;0.40;;;18.80;61.60;;;;;;5028581;28;20517;-51
2022/10/16 09:09:16;;;;;;;0.52;0.30;;;18.80;61.30;;;;;;5014844;28;20056;-51
2022/10/16 09:11:51;;;;;;;0.30;0.30;;;18.90;61.30;;;;;;5009557;28;20072;-45
2022/10/16 09:14:36;;;;;;;0.73;0.30;;;18.90;60.90;;;;;;5013153;28;20061;-52
2022/10/16 09:17:23;;;;;;;0.32;0.30;;;18.90;60.70;;;;;;5011145;28;20056;-50
2022/10/16 09:19:56;;;;;;;4.03;0.50;;;18.90;60.60;;;;;;5015586;28;20049;-45
2022/10/16 09:22:28;;;;;;;0.70;0.40;;;19.00;60.60;;;;;;5002793;28;20060;-46
2022/10/16 09:25:00;;;;;;;1.08;0.50;;;19.00;60.70;;;;;;5015897;28;20053;-48
2022/10/16 09:27:27;;;;;;;0.65;0.45;;;19.10;60.80;;;;;;5009195;28;20910;-47
2022/10/16 09:29:54;;;;;;;1.20;0.50;;;19.10;60.80;;;;;;5017349;28;20543;-49
2022/10/16 09:32:23;;;;;;;3.60;0.40;;;19.10;60.40;;;;;;5013181;28;20053;-47
2022/10/16 09:34:56;;;;;;;0.20;0.20;;;19.10;60.00;;;;;;5004048;28;20052;-48
2022/10/16 09:37:24;;;;;;;1.33;0.50;;;19.20;60.00;;;;;;5032027;28;20053;-49
2022/10/16 09:39:54;;;;;;;1.30;0.30;;;19.20;60.00;;;;;;5024003;28;20515;-47
2022/10/16 09:42:28;;;;;;;0.47;0.30;;;19.20;59.80;;;;;;5023477;28;20405;-46
2022/10/16 09:44:55;;;;;;;2.88;0.40;;;19.20;59.60;;;;;;5022951;28;20676;-46
2022/10/16 09:47:27;;;;;;;0.95;0.50;;;19.30;59.60;;;;;;5019384;28;20049;-46
2022/10/16 09:49:57;;;;;;;1.20;0.68;;;19.30;59.50;;;;;;5031520;28;20056;-47
2022/10/16 09:52:24;;;;;;;3.38;0.40;;;19.30;59.50;;;;;;5030306;28;20049;-45
2022/10/16 09:54:53;;;;;;;1.65;0.40;;;19.30;59.10;;;;;;5023405;28;20057;-48
2022/10/16 09:57:21;;;;;;;1.35;0.40;;;19.40;59.10;;;;;;5035404;28;20053;-49
2022/10/16 09:59:50;;;;;;;0.55;0.40;;;19.40;59.10;;;;;;5029399;28;20053;-53
2022/10/16 10:02:20;;;;;;;0.30;0.25;;;19.40;59.10;;;;;;5025649;28;20060;-49
2022/10/16 10:04:53;;;;;;;1.10;0.30;;;19.40;59.10;;;;;;5021058;28;20057;-49
2022/10/16 10:07:26;;;;;;;2.55;0.40;;;19.40;58.70;;;;;;5016468;28;20049;-47
2022/10/16 10:09:54;;;;;;;1.25;0.38;;;19.50;58.60;;;;;;5032432;28;20061;-45
2022/10/16 10:12:23;;;;;;;1.52;0.90;;;19.50;58.60;;;;;;5030625;28;20064;-45
2022/10/16 10:14:52;;;;;;;2.40;0.73;;;19.50;58.40;;;;;;5029907;28;20056;-46
2022/10/16 10:17:21;;;;;;;0.50;0.50;;;19.50;58.20;;;;;;5017346;28;20509;-46
2022/10/16 10:19:55;;;;;;;0.90;0.50;;;19.50;58.10;;;;;;5037256;28;20408;-47
2022/10/16 10:22:26;;;;;;;1.23;0.30;;;19.50;57.90;;;;;;5034689;28;20068;-47
2022/10/16 10:25:12;;;;;;;1.10;0.40;;;19.60;57.90;;;;;;5010177;28;20481;-48
2022/10/16 10:27:47;;;;;;;2.10;0.60;;;19.60;57.30;;;;;;5012239;28;20065;-47
2022/10/16 10:30:23;;;;;;;0.68;0.20;;;19.70;57.20;;;;;;5021646;28;20068;-48
2022/10/16 10:33:06;;;;;;;0.95;0.30;;;19.60;57.00;;;;;;5014682;28;20064;-46
2022/10/16 10:35:43;;;;;;;0.90;0.40;;;19.70;57.00;;;;;;5027262;28;20064;-46
2022/10/16 10:38:26;;;;;;;0.82;0.40;;;19.70;56.90;;;;;;5027146;28;20056;-48
2022/10/16 10:41:03;;;;;;;1.75;0.50;;;19.70;56.90;;;;;;5024938;28;20057;-47
2022/10/16 10:43:43;;;;;;;3.58;0.70;;;19.70;56.90;;;;;;5041815;28;20516;-49
2022/10/16 10:46:16;;;;;;;2.80;0.50;;;19.70;56.80;;;;;;5034503;28;20492;-49
2022/10/16 10:49:04;;;;;;;1.70;0.57;;;19.80;56.90;;;;;;5030704;28;20049;-48
2022/10/16 10:51:44;;;;;;;0.43;0.40;;;19.80;57.00;;;;;;5028527;28;20053;-47
2022/10/16 10:54:21;;;;;;;0.60;0.40;;;19.90;56.70;;;;;;5034575;28;20060;-48
2022/10/16 10:56:56;;;;;;;1.20;0.35;;;19.90;56.60;;;;;;5018282;28;20056;-43
2022/10/16 10:59:50;;;;;;;3.20;0.50;;;20.00;56.50;;;;;;5025879;28;20068;-47
2022/10/16 11:02:27;;;;;;;0.50;0.28;;;20.00;56.30;;;;;;5021901;28;20053;-46
2022/10/16 11:05:23;;;;;;;0.60;0.30;;;20.10;56.30;;;;;;5031592;28;20052;-46
2022/10/16 11:07:56;;;;;;;1.02;0.20;;;20.10;56.10;;;;;;5030815;28;20508;-50
2022/10/16 11:10:26;;;;;;;0.40;0.38;;;20.10;56.10;;;;;;5030794;28;20064;-47
2022/10/16 11:12:59;;;;;;;0.98;0.40;;;20.20;56.10;;;;;;5024072;28;20053;-47
2022/10/16 11:15:31;;;;;;;0.85;0.40;;;20.20;56.30;;;;;;5021745;28;20065;-48
2022/10/16 11:18:04;;;;;;;0.47;0.20;;;20.20;55.50;;;;;;5024385;28;20053;-46
2022/10/16 11:20:34;;;;;;;0.90;0.30;;;20.30;55.50;;;;;;5027421;28;20053;-48
2022/10/16 11:23:10;;;;;;;0.95;0.35;;;20.30;55.40;;;;;;5035093;28;20099;-50
2022/10/16 11:25:37;;;;;;;0.50;0.30;;;20.30;55.20;;;;;;5019052;28;20417;-45
2022/10/16 11:28:11;;;;;;;1.35;0.32;;;20.30;55.10;;;;;;5028374;28;20065;-46
2022/10/16 11:30:46;;;;;;;0.20;0.20;;;20.40;54.90;;;;;;5022806;28;20064;-45
2022/10/16 11:33:26;;;;;;;0.55;0.30;;;20.40;55.50;;;;;;5029586;28;20499;-49
2022/10/16 11:35:58;;;;;;;1.42;0.25;;;20.40;55.30;;;;;;5032001;28;20088;-49
2022/10/16 11:38:33;;;;;;;1.73;0.38;;;20.50;55.40;;;;;;5027803;28;20053;-49
2022/10/16 11:41:08;;;;;;;0.55;0.10;;;20.50;55.10;;;;;;5025065;28;20068;-51
2022/10/16 11:43:39;;;;;;;0.50;0.20;;;20.50;54.80;;;;;;5037396;28;20060;-50
2022/10/16 11:46:12;;;;;;;0.73;0.20;;;20.60;54.70;;;;;;5039458;28;20064;-48
2022/10/16 11:48:44;;;;;;;0.50;0.25;;;20.60;54.80;;;;;;5032706;28;20416;-51
2022/10/16 11:51:18;;;;;;;0.38;0.20;;;20.60;54.60;;;;;;5023540;28;20053;-50
2022/10/16 11:53:57;;;;;;;0.40;0.30;;;20.70;54.70;;;;;;5024107;28;20065;-44
2022/10/16 11:56:25;;;;;;;0.90;0.38;;;20.70;54.40;;;;;;5024317;28;20060;-46
2022/10/16 11:58:57;;;;;;;2.90;0.40;;;20.70;54.60;;;;;;5036933;28;20481;-51
2022/10/16 12:01:31;;;;;;;0.32;0.30;;;20.80;54.70;;;;;;5029878;28;20636;-46
2022/10/16 12:04:19;;;;;;;2.63;0.20;;;20.80;54.40;;;;;;5027408;28;20067;-47
2022/10/16 12:06:51;;;;;;;3.55;0.45;;;20.90;54.40;;;;;;5030314;28;20053;-47
2022/10/16 12:09:25;;;;;;;1.58;0.40;;;20.80;54.50;;;;;;5034326;28;20500;-45
2022/10/16 12:11:52;;;;;;;1.38;0.30;;;20.90;54.70;;;;;;5033191;28;20053;-47
2022/10/16 12:14:34;;;;;;;1.13;0.30;;;20.90;54.70;;;;;;5027852;28;20614;-45
2022/10/16 12:17:05;;;;;;;1.92;0.40;;;20.90;54.50;;;;;;5021066;28;20054;-47
2022/10/16 12:19:33;;;;;;;0.65;0.40;;;21.00;54.60;;;;;;5028886;28;20049;-50
2022/10/16 12:22:03;;;;;;;5.25;1.45;;;21.00;54.80;;;;;;5036229;28;20686;-49
2022/10/16 12:24:37;;;;;;;1.30;0.80;;;21.00;54.80;;;;;;5031307;28;20041;-53
2022/10/16 12:27:07;;;;;;;0.63;0.50;;;21.00;54.80;;;;;;5043897;28;20057;-46
2022/10/16 12:29:37;;;;;;;1.27;0.32;;;21.10;54.80;;;;;;5027140;28;20049;-46
2022/10/16 12:32:07;;;;;;;1.58;0.35;;;21.10;54.60;;;;;;5024032;28;20053;-48
2022/10/16 12:34:40;;;;;;;0.68;0.30;;;21.10;54.60;;;;;;5039102;28;20053;-49
2022/10/16 12:37:14;;;;;;;0.45;0.25;;;21.20;54.60;;;;;;5036982;28;20050;-50
2022/10/16 12:39:43;;;;;;;0.60;0.20;;;21.20;54.60;;;;;;5029142;28;20067;-48
2022/10/16 12:42:34;;;;;;;0.32;0.17;;;21.20;54.60;;;;;;5029265;28;20493;-51
2022/10/16 12:45:13;;;;;;;1.20;0.28;;;21.20;54.20;;;;;;5012594;28;20398;-45
2022/10/16 12:47:50;;;;;;;1.75;0.32;;;21.20;54.50;;;;;;5041991;28;20056;-49
2022/10/16 12:50:31;;;;;;;1.63;0.40;;;21.30;54.20;;;;;;5037179;28;20068;-53
2022/10/16 12:52:59;;;;;;;1.02;0.35;;;21.30;54.20;;;;;;5038036;28;20393;-49
2022/10/16 12:55:32;;;;;;;0.30;0.30;;;21.30;54.30;;;;;;5042294;28;20505;-53
2022/10/16 12:58:22;;;;;;;0.47;0.40;;;21.30;54.20;;;;;;5033004;28;20060;-50
2022/10/16 13:00:57;;;;;;;0.40;0.30;;;21.30;54.60;;;;;;5034630;28;20052;-46
2022/10/16 13:03:49;;;;;;;8.23;0.88;;;21.30;54.20;;;;;;5043040;28;20052;-50
2022/10/16 13:06:25;;;;;;;0.95;0.32;;;21.30;54.20;;;;;;5013580;28;20080;-47